Friday Harbor, Washington
Current Conditions -  °F | °C
As of 6:53 PM on Wednesday 22 Oct 2014 (Local Time) from KFHR Reporting Station
Light Rain Light Rain  
Wind Chill: 13°   Ceiling: 1500
Heat Index: 13°   Visibility: 10mi
Dew Point: 11°   Wind: 16mph
Humidity: 89%   Direction: 130°SE
Pressure: 29.5"   Gusts: 24mph
Location:  48.53°N, 123.02°W
Report Text: KFHR 230153Z AUTO 13014G21KT 10SM -RA OVC015 13/11 A2950 RMK AO2 RAE21B50 SLP989 P0000 T01280111
Loading
Personal Weather Stations






























Interactive Weather Map
Tropical Storm Tracking
New forecast layout! Learn more

10-Day Weather Forecast

Advertisements
Track Severe Weather on mobile